createdAt,value
2018-01-03T00:01:20.866Z,0.43
2018-01-03T00:03:47.560Z,0.55
2018-01-03T00:06:14.979Z,0.38
2018-01-03T00:08:41.739Z,0.31
2018-01-03T00:11:09.382Z,0.48
2018-01-03T00:13:36.076Z,0.53
2018-01-03T00:16:03.486Z,0.54
2018-01-03T00:18:30.150Z,0.53
2018-01-03T00:20:56.812Z,0.29
2018-01-03T00:23:24.198Z,0.38
2018-01-03T00:25:50.902Z,0.28
2018-01-03T00:28:17.608Z,0.07
2018-01-03T00:30:44.244Z,0.06
2018-01-03T00:33:10.919Z,0.10
2018-01-03T00:35:37.585Z,0.07
2018-01-03T00:38:05.036Z,0.17
2018-01-03T00:40:31.692Z,0.14
2018-01-03T00:42:59.095Z,0.15
2018-01-03T00:45:25.745Z,0.22
2018-01-03T00:47:52.409Z,0.26
2018-01-03T00:50:19.082Z,-0.03
2018-01-03T00:52:46.468Z,0.04
2018-01-03T00:55:13.907Z,0.08
2018-01-03T00:57:41.345Z,-0.24
2018-01-03T01:00:08.039Z,-0.15
2018-01-03T01:02:34.699Z,-0.08
2018-01-03T01:05:01.370Z,-0.35
2018-01-03T01:07:28.028Z,-0.21
2018-01-03T01:09:54.712Z,-0.19
2018-01-03T01:12:21.396Z,-0.23
2018-01-03T01:14:48.080Z,-0.16
2018-01-03T01:17:14.872Z,-0.14
2018-01-03T01:19:41.527Z,-0.18
2018-01-03T01:22:08.169Z,-0.17
2018-01-03T01:24:35.582Z,-0.22
2018-01-03T01:27:03.152Z,-0.42
2018-01-03T01:29:29.789Z,-0.46
2018-01-03T01:31:56.441Z,-0.42
2018-01-03T01:34:24.088Z,-0.60
2018-01-03T01:36:50.744Z,-0.43
2018-01-03T01:39:17.442Z,-0.68
2018-01-03T01:41:44.832Z,-0.65
2018-01-03T01:44:11.508Z,-0.48
2018-01-03T01:46:38.148Z,-0.42
2018-01-03T01:49:06.856Z,-0.39
2018-01-03T01:51:33.536Z,-0.35
2018-01-03T01:54:00.909Z,-0.52
2018-01-03T01:56:27.560Z,-0.44
2018-01-03T01:58:54.239Z,-0.53
2018-01-03T02:01:20.906Z,-0.50
2018-01-03T02:03:48.290Z,-0.51
2018-01-03T02:06:14.968Z,-0.90
2018-01-03T02:08:41.652Z,-0.66
2018-01-03T02:11:09.046Z,-0.58
2018-01-03T02:13:35.695Z,-0.82
2018-01-03T02:16:02.355Z,-0.68
2018-01-03T02:18:28.996Z,-0.65
2018-01-03T02:20:55.691Z,-0.67
2018-01-03T02:23:23.078Z,-0.56
2018-01-03T02:25:49.756Z,-0.77
2018-01-03T02:28:16.405Z,-0.81
2018-01-03T02:30:43.067Z,-0.61
2018-01-03T02:33:09.919Z,-0.47
2018-01-03T02:35:37.344Z,-0.43
2018-01-03T02:38:04.095Z,-0.49
2018-01-03T02:40:30.756Z,-0.35
2018-01-03T02:42:58.172Z,-0.32
2018-01-03T02:45:25.105Z,-0.35
2018-01-03T02:47:51.752Z,-0.27
2018-01-03T02:50:18.422Z,-0.36
2018-01-03T02:52:45.079Z,-0.41
2018-01-03T02:55:11.725Z,-0.38
2018-01-03T02:57:38.395Z,-0.57
2018-01-03T03:00:05.063Z,-0.73
2018-01-03T03:02:31.728Z,-0.82
2018-01-03T03:04:59.150Z,-0.66
2018-01-03T03:07:25.834Z,-0.52
2018-01-03T03:09:52.492Z,-0.60
2018-01-03T03:12:19.166Z,-0.68
2018-01-03T03:14:46.592Z,-0.70
2018-01-03T03:17:13.255Z,-0.47
2018-01-03T03:19:40.637Z,-0.36
2018-01-03T03:22:07.861Z,-0.26
2018-01-03T03:24:34.529Z,-0.28
2018-01-03T03:27:01.930Z,-0.22
2018-01-03T03:29:28.588Z,-0.28
2018-01-03T03:31:55.260Z,-0.38
2018-01-03T03:34:22.664Z,-0.31
2018-01-03T03:36:49.322Z,-0.34
2018-01-03T03:39:16.008Z,-0.40
2018-01-03T03:41:43.428Z,-0.25
2018-01-03T03:44:10.076Z,-0.43
2018-01-03T03:46:36.722Z,-0.31
2018-01-03T03:49:03.426Z,-0.61
2018-01-03T03:51:30.060Z,-0.47
2018-01-03T03:53:56.744Z,-0.47
2018-01-03T03:56:24.158Z,-0.57
2018-01-03T03:58:50.796Z,-0.57
2018-01-03T04:01:18.182Z,-0.49
2018-01-03T04:03:44.869Z,-0.38
2018-01-03T04:06:11.529Z,-0.15
2018-01-03T04:08:38.966Z,0.18
2018-01-03T04:11:05.643Z,0.25
2018-01-03T04:13:32.305Z,0.36
2018-01-03T04:15:58.960Z,0.39
2018-01-03T04:18:25.641Z,0.44
2018-01-03T04:20:52.311Z,0.43
2018-01-03T04:23:18.968Z,0.26
2018-01-03T04:25:45.640Z,0.07
2018-01-03T04:28:12.286Z,0.10
2018-01-03T04:30:38.961Z,-0.04
2018-01-03T04:33:06.547Z,0.12
2018-01-03T04:35:34.252Z,0.24
2018-01-03T04:38:00.920Z,0.29
2018-01-03T04:40:27.600Z,0.46
2018-01-03T04:42:54.980Z,0.42
2018-01-03T04:45:21.645Z,0.45
2018-01-03T04:47:48.310Z,0.58
2018-01-03T04:50:15.017Z,0.35
2018-01-03T04:52:41.653Z,0.32
2018-01-03T04:55:08.309Z,0.49
2018-01-03T04:57:35.125Z,0.72
2018-01-03T05:00:01.948Z,0.86
2018-01-03T05:02:29.389Z,0.70
2018-01-03T05:04:56.200Z,0.91
2018-01-03T05:07:23.025Z,0.90
2018-01-03T05:09:49.908Z,0.76
2018-01-03T05:12:16.681Z,0.75
2018-01-03T05:14:43.393Z,0.63
2018-01-03T05:17:10.328Z,0.49
2018-01-03T05:19:37.768Z,0.39
2018-01-03T05:22:04.628Z,0.31
2018-01-03T05:24:31.433Z,0.62
2018-01-03T05:26:58.170Z,0.76
2018-01-03T05:29:24.879Z,0.87
2018-01-03T05:31:51.634Z,1.06
2018-01-03T05:34:18.284Z,1.17
2018-01-03T05:36:44.989Z,1.29
2018-01-03T05:39:11.637Z,0.93
2018-01-03T05:41:38.308Z,0.96
2018-01-03T05:44:04.979Z,1.08
2018-01-03T05:46:31.612Z,1.30
2018-01-03T05:48:58.294Z,1.38
2018-01-03T05:51:25.007Z,1.46
2018-01-03T05:53:52.394Z,1.48
2018-01-03T05:56:19.034Z,1.43
2018-01-03T05:58:45.700Z,1.57
2018-01-03T06:01:12.353Z,1.69
2018-01-03T06:03:39.673Z,1.76
2018-01-03T06:06:06.346Z,1.81
2018-01-03T06:08:32.983Z,1.85
2018-01-03T06:10:59.777Z,1.90
2018-01-03T06:13:26.443Z,1.82
2018-01-03T06:15:53.859Z,1.70
2018-01-03T06:18:20.556Z,1.82
2018-01-03T06:20:47.213Z,1.79
2018-01-03T06:23:13.870Z,1.73
2018-01-03T06:25:40.546Z,1.82
2018-01-03T06:28:07.203Z,1.80
2018-01-03T06:30:34.633Z,1.60
2018-01-03T06:33:02.869Z,1.52
2018-01-03T06:35:29.553Z,1.31
2018-01-03T06:37:56.229Z,1.49
2018-01-03T06:40:23.653Z,1.52
2018-01-03T06:42:51.220Z,1.45
2018-01-03T06:45:17.909Z,1.30
2018-01-03T06:47:44.580Z,1.54
2018-01-03T06:50:12.102Z,1.66
2018-01-03T06:52:39.508Z,1.59
2018-01-03T06:55:06.199Z,1.68
2018-01-03T06:57:35.266Z,1.75
2018-01-03T07:00:02.029Z,1.89
2018-01-03T07:02:28.659Z,2.26
2018-01-03T07:04:55.286Z,2.15
2018-01-03T07:07:22.882Z,2.24
2018-01-03T07:09:49.596Z,2.43
2018-01-03T07:12:16.249Z,2.23
2018-01-03T07:14:42.937Z,2.28
2018-01-03T07:17:10.364Z,2.08
2018-01-03T07:19:37.056Z,2.30
2018-01-03T07:22:03.700Z,2.27
2018-01-03T07:24:30.366Z,2.27
2018-01-03T07:26:57.028Z,2.29
2018-01-03T07:29:23.793Z,2.45
2018-01-03T07:31:51.214Z,2.40
2018-01-03T07:34:17.878Z,2.78
2018-01-03T07:36:44.549Z,3.33
2018-01-03T07:39:11.229Z,4.53
2018-01-03T07:41:39.003Z,6.15
2018-01-03T07:44:05.669Z,7.38
2018-01-03T07:46:32.331Z,8.06
2018-01-03T07:48:59.745Z,8.65
2018-01-03T07:51:26.399Z,10.47
2018-01-03T07:53:53.841Z,11.74
2018-01-03T07:56:20.502Z,12.69
2018-01-03T07:58:47.134Z,12.93
2018-01-03T08:01:13.820Z,13.12
2018-01-03T08:03:40.474Z,12.30
2018-01-03T08:06:07.868Z,11.35
2018-01-03T08:08:34.575Z,10.59
2018-01-03T08:11:01.976Z,9.93
2018-01-03T08:13:28.652Z,8.47
2018-01-03T08:15:55.338Z,7.88
2018-01-03T08:18:21.984Z,7.93
2018-01-03T08:20:48.621Z,8.04
2018-01-03T08:23:15.356Z,8.50
2018-01-03T08:25:42.758Z,9.77
2018-01-03T08:28:09.413Z,9.58
2018-01-03T08:30:36.097Z,9.22
2018-01-03T08:33:02.756Z,8.73
2018-01-03T08:35:29.451Z,9.73
2018-01-03T08:37:56.154Z,12.33
2018-01-03T08:40:22.809Z,14.75
2018-01-03T08:42:49.501Z,16.42
2018-01-03T08:45:16.886Z,15.43
2018-01-03T08:47:43.589Z,14.92
2018-01-03T08:50:10.236Z,13.91
2018-01-03T08:52:36.900Z,12.13
2018-01-03T08:55:04.389Z,12.33
2018-01-03T08:57:31.047Z,12.58
2018-01-03T08:59:57.684Z,11.79
2018-01-03T09:02:24.345Z,10.43
2018-01-03T09:04:51.002Z,9.81
2018-01-03T09:07:17.700Z,8.65
2018-01-03T09:09:44.437Z,8.63
2018-01-03T09:12:12.434Z,8.41
2018-01-03T09:14:40.009Z,9.60
2018-01-03T09:17:06.648Z,13.17
2018-01-03T09:19:33.330Z,17.42
2018-01-03T09:22:00.701Z,17.11
2018-01-03T09:24:28.098Z,15.23
2018-01-03T09:26:54.796Z,14.00
2018-01-03T09:29:22.185Z,14.19
2018-01-03T09:31:48.845Z,13.77
2018-01-03T09:34:15.533Z,11.90
2018-01-03T09:36:42.169Z,11.60
2018-01-03T09:39:08.831Z,12.69
2018-01-03T09:41:36.220Z,12.56
2018-01-03T09:44:02.959Z,12.10
2018-01-03T09:46:29.586Z,11.12
2018-01-03T09:48:56.992Z,9.94
2018-01-03T09:51:23.653Z,10.24
2018-01-03T09:53:50.428Z,11.96
2018-01-03T09:56:17.083Z,15.06
2018-01-03T09:58:43.723Z,14.79
2018-01-03T10:01:11.285Z,15.78
2018-01-03T10:03:37.926Z,17.40
2018-01-03T10:06:04.620Z,19.26
2018-01-03T10:08:31.291Z,21.12
2018-01-03T10:10:59.665Z,23.51
2018-01-03T10:13:26.340Z,24.53
2018-01-03T10:15:53.001Z,23.39
2018-01-03T10:18:19.694Z,23.92
2018-01-03T10:20:46.398Z,22.10
2018-01-03T10:23:13.044Z,24.45
2018-01-03T10:25:39.757Z,24.48
2018-01-03T10:28:06.445Z,24.42
2018-01-03T10:30:33.092Z,22.02
2018-01-03T10:32:59.764Z,18.92
2018-01-03T10:35:27.278Z,17.70
2018-01-03T10:37:54.122Z,17.29
2018-01-03T10:40:20.784Z,17.78
2018-01-03T10:42:47.494Z,19.06
2018-01-03T10:45:14.158Z,19.74
2018-01-03T10:47:40.813Z,19.00
2018-01-03T10:50:07.488Z,19.89
2018-01-03T10:52:34.878Z,18.83
2018-01-03T10:55:01.542Z,17.84
2018-01-03T10:57:28.241Z,16.88
2018-01-03T10:59:55.627Z,16.21
2018-01-03T11:02:23.299Z,16.73
2018-01-03T11:04:50.008Z,17.82
2018-01-03T11:07:17.408Z,19.30
2018-01-03T11:09:44.097Z,19.17
2018-01-03T11:12:11.506Z,17.18
2018-01-03T11:14:38.169Z,18.43
2018-01-03T11:17:04.872Z,17.35
2018-01-03T11:19:31.524Z,15.77
2018-01-03T11:21:58.238Z,16.40
2018-01-03T11:24:25.670Z,15.72
2018-01-03T11:26:52.434Z,14.71
2018-01-03T11:29:19.841Z,14.15
2018-01-03T11:31:46.528Z,13.06
2018-01-03T11:34:14.017Z,12.12
2018-01-03T11:36:41.732Z,12.03
2018-01-03T11:39:09.147Z,11.77
2018-01-03T11:41:35.841Z,10.34
2018-01-03T11:44:02.509Z,9.98
2018-01-03T11:46:29.940Z,9.39
2018-01-03T11:48:56.863Z,9.20
2018-01-03T11:51:23.513Z,9.16
2018-01-03T11:53:50.179Z,8.79
2018-01-03T11:56:16.921Z,8.26
2018-01-03T11:58:43.579Z,7.70
2018-01-03T12:01:10.290Z,7.26
2018-01-03T12:03:37.013Z,7.35
2018-01-03T12:06:04.435Z,7.69
2018-01-03T12:08:31.853Z,7.46
2018-01-03T12:10:58.530Z,7.73
2018-01-03T12:13:25.194Z,8.00
2018-01-03T12:15:51.902Z,7.81
2018-01-03T12:18:18.622Z,7.86
2018-01-03T12:20:45.278Z,8.01
2018-01-03T12:23:11.970Z,7.90
2018-01-03T12:25:39.390Z,7.92
2018-01-03T12:28:06.084Z,7.73
2018-01-03T12:30:32.770Z,7.49
2018-01-03T12:32:59.510Z,7.58
2018-01-03T12:35:26.181Z,7.32
2018-01-03T12:37:53.808Z,7.47
2018-01-03T12:40:20.494Z,6.96
2018-01-03T12:42:47.269Z,7.28
2018-01-03T12:45:13.971Z,7.18
2018-01-03T12:47:40.621Z,6.78
2018-01-03T12:50:07.319Z,6.95
2018-01-03T12:52:34.023Z,7.15
2018-01-03T12:55:01.482Z,7.28
2018-01-03T12:57:28.897Z,7.22
2018-01-03T12:59:55.571Z,6.90
2018-01-03T13:02:22.988Z,6.52
2018-01-03T13:04:49.649Z,6.40
2018-01-03T13:07:16.308Z,6.57
2018-01-03T13:09:42.948Z,6.37
2018-01-03T13:12:09.640Z,6.51
2018-01-03T13:14:36.343Z,6.64
2018-01-03T13:17:03.021Z,6.54
2018-01-03T13:19:29.708Z,6.68
2018-01-03T13:21:56.448Z,6.66
2018-01-03T13:24:23.840Z,6.56
2018-01-03T13:26:51.889Z,6.22
2018-01-03T13:29:18.597Z,6.14
2018-01-03T13:31:45.256Z,6.14
2018-01-03T13:34:11.911Z,6.22
2018-01-03T13:36:38.609Z,5.80
2018-01-03T13:39:05.253Z,5.65
2018-01-03T13:41:31.922Z,5.74
2018-01-03T13:43:58.645Z,5.90
2018-01-03T13:46:25.632Z,6.14
2018-01-03T13:48:52.264Z,6.23
2018-01-03T13:51:18.939Z,6.29
2018-01-03T13:53:46.449Z,6.25
2018-01-03T13:56:13.121Z,6.36
2018-01-03T13:58:39.792Z,6.46
2018-01-03T14:01:06.523Z,6.58
2018-01-03T14:03:33.204Z,6.63
2018-01-03T14:06:00.610Z,6.74
2018-01-03T14:08:27.288Z,6.85
2018-01-03T14:10:53.953Z,6.89
2018-01-03T14:13:20.641Z,6.72
2018-01-03T14:15:47.294Z,6.97
2018-01-03T14:18:13.965Z,7.09
2018-01-03T14:20:41.431Z,7.29
2018-01-03T14:23:08.839Z,7.28
2018-01-03T14:25:35.496Z,7.16
2018-01-03T14:28:02.221Z,7.14
2018-01-03T14:30:28.853Z,6.91
2018-01-03T14:32:55.549Z,6.68
2018-01-03T14:35:22.244Z,6.29
2018-01-03T14:37:48.931Z,6.16
2018-01-03T14:40:15.590Z,6.07
2018-01-03T14:42:43.083Z,6.07
2018-01-03T14:45:09.835Z,5.84
2018-01-03T14:47:36.501Z,5.72
2018-01-03T14:50:03.231Z,5.56
2018-01-03T14:52:30.734Z,5.37
2018-01-03T14:54:58.145Z,5.34
2018-01-03T14:57:24.988Z,5.31
2018-01-03T14:59:51.659Z,5.35
2018-01-03T15:02:18.387Z,5.40
2018-01-03T15:04:45.026Z,5.34
2018-01-03T15:07:11.678Z,5.17
2018-01-03T15:09:39.802Z,5.31
2018-01-03T15:12:08.202Z,5.47
2018-01-03T15:14:36.924Z,5.72
2018-01-03T15:17:05.360Z,6.00
2018-01-03T15:19:32.105Z,6.08
2018-01-03T15:21:58.904Z,6.20
2018-01-03T15:24:26.208Z,5.80
2018-01-03T15:26:53.455Z,5.91
2018-01-03T15:29:20.558Z,5.83
2018-01-03T15:31:47.282Z,6.03
2018-01-03T15:34:13.938Z,6.12
2018-01-03T15:36:40.590Z,6.00
2018-01-03T15:39:07.313Z,5.97
2018-01-03T15:41:33.965Z,5.80
2018-01-03T15:44:00.627Z,5.65
2018-01-03T15:46:27.293Z,5.61
2018-01-03T15:48:54.222Z,5.72
2018-01-03T15:51:20.878Z,5.51
2018-01-03T15:53:47.629Z,5.60
2018-01-03T15:56:14.300Z,5.37
2018-01-03T15:58:40.948Z,5.31
2018-01-03T16:01:07.635Z,5.30
2018-01-03T16:03:34.313Z,5.20
2018-01-03T16:06:01.692Z,5.26
2018-01-03T16:08:28.802Z,5.25
2018-01-03T16:10:55.587Z,5.20
2018-01-03T16:13:22.247Z,4.93
2018-01-03T16:15:48.960Z,4.66
2018-01-03T16:18:16.335Z,4.67
2018-01-03T16:20:43.070Z,4.77
2018-01-03T16:23:10.485Z,4.50
2018-01-03T16:25:37.209Z,4.38
2018-01-03T16:28:03.850Z,4.65
2018-01-03T16:30:30.535Z,4.76
2018-01-03T16:32:57.250Z,4.89
2018-01-03T16:35:23.921Z,4.95
2018-01-03T16:37:50.615Z,4.72
2018-01-03T16:40:17.316Z,4.70
2018-01-03T16:42:44.733Z,4.78
2018-01-03T16:45:12.165Z,4.81
2018-01-03T16:47:38.854Z,4.89
2018-01-03T16:50:06.332Z,4.65
2018-01-03T16:52:39.156Z,4.48
2018-01-03T16:55:05.805Z,4.38
2018-01-03T16:57:32.506Z,4.17
2018-01-03T16:59:59.203Z,4.17
2018-01-03T17:02:25.886Z,4.25
2018-01-03T17:04:52.540Z,4.42
2018-01-03T17:07:19.519Z,4.57
2018-01-03T17:09:46.182Z,4.74
2018-01-03T17:12:12.863Z,4.32
2018-01-03T17:14:39.557Z,4.41
2018-01-03T17:17:06.230Z,4.47
2018-01-03T17:19:32.908Z,4.02
2018-01-03T17:22:00.333Z,3.85
2018-01-03T17:24:27.013Z,4.06
2018-01-03T17:26:54.389Z,4.14
2018-01-03T17:29:21.071Z,3.91
2018-01-03T17:31:47.839Z,3.72
2018-01-03T17:34:14.490Z,4.10
2018-01-03T17:36:41.201Z,4.10
2018-01-03T17:39:07.945Z,4.09
2018-01-03T17:41:34.624Z,4.33
2018-01-03T17:44:01.302Z,4.60
2018-01-03T17:46:27.968Z,4.64
2018-01-03T17:48:54.635Z,4.56
2018-01-03T17:51:21.322Z,4.52
2018-01-03T17:53:48.066Z,4.52
2018-01-03T17:56:14.798Z,4.39
2018-01-03T17:58:42.305Z,4.31
2018-01-03T18:01:08.955Z,4.20
2018-01-03T18:03:35.679Z,3.99
2018-01-03T18:06:02.452Z,3.96
2018-01-03T18:08:29.078Z,4.10
2018-01-03T18:10:55.732Z,3.86
2018-01-03T18:13:22.386Z,3.71
2018-01-03T18:15:49.085Z,3.78
2018-01-03T18:18:15.723Z,3.58
2018-01-03T18:20:42.429Z,3.40
2018-01-03T18:23:09.944Z,3.43
2018-01-03T18:25:36.653Z,3.50
2018-01-03T18:28:04.127Z,3.32
2018-01-03T18:30:30.772Z,3.44
2018-01-03T18:32:57.440Z,3.36
2018-01-03T18:35:24.119Z,2.99
2018-01-03T18:37:50.974Z,3.11
2018-01-03T18:40:17.686Z,3.11
2018-01-03T18:42:44.411Z,3.18
2018-01-03T18:45:11.068Z,3.23
2018-01-03T18:47:37.717Z,3.35
2018-01-03T18:50:04.402Z,3.23
2018-01-03T18:52:31.789Z,2.77
2018-01-03T18:54:58.470Z,2.75
2018-01-03T18:57:25.161Z,2.87
2018-01-03T18:59:51.818Z,2.83
2018-01-03T19:02:18.486Z,2.79
2018-01-03T19:04:45.220Z,2.48
2018-01-03T19:07:11.870Z,2.49
2018-01-03T19:09:39.376Z,2.73
2018-01-03T19:12:06.861Z,2.45
2018-01-03T19:14:33.524Z,2.41
2018-01-03T19:17:00.894Z,2.44
2018-01-03T19:19:27.659Z,2.23
2018-01-03T19:21:54.308Z,2.33
2018-01-03T19:24:21.004Z,2.17
2018-01-03T19:26:47.761Z,2.22
2018-01-03T19:29:14.450Z,2.40
2018-01-03T19:31:41.881Z,2.08
2018-01-03T19:34:08.560Z,1.95
2018-01-03T19:36:35.960Z,2.06
2018-01-03T19:39:02.792Z,2.13
2018-01-03T19:41:29.482Z,2.05
2018-01-03T19:43:56.156Z,2.14
2018-01-03T19:46:23.551Z,2.03
2018-01-03T19:48:50.236Z,2.22
2018-01-03T19:51:17.659Z,2.00
2018-01-03T19:53:44.326Z,1.89
2018-01-03T19:56:11.001Z,2.09
2018-01-03T19:58:38.398Z,1.93
2018-01-03T20:01:05.091Z,1.75
2018-01-03T20:03:32.541Z,1.90
2018-01-03T20:05:59.219Z,1.75
2018-01-03T20:08:26.638Z,1.71
2018-01-03T20:10:53.351Z,1.65
2018-01-03T20:13:20.054Z,1.45
2018-01-03T20:15:47.483Z,1.56
2018-01-03T20:18:14.153Z,1.50
2018-01-03T20:20:41.565Z,1.50
2018-01-03T20:23:08.230Z,1.58
2018-01-03T20:25:34.917Z,1.67
2018-01-03T20:28:02.347Z,1.74
2018-01-03T20:30:29.016Z,1.50
2018-01-03T20:32:56.453Z,1.46
2018-01-03T20:35:23.208Z,1.46
2018-01-03T20:37:50.638Z,1.62
2018-01-03T20:40:17.305Z,1.80
2018-01-03T20:42:44.004Z,1.56
2018-01-03T20:45:10.660Z,1.61
2018-01-03T20:47:37.325Z,1.68
2018-01-03T20:50:04.022Z,1.75
2018-01-03T20:52:30.948Z,1.59
2018-01-03T20:54:58.352Z,1.63
2018-01-03T20:57:25.035Z,1.65
2018-01-03T20:59:54.347Z,1.54
2018-01-03T21:02:21.770Z,1.67
2018-01-03T21:04:48.453Z,1.62
2018-01-03T21:07:15.849Z,1.50
2018-01-03T21:09:42.606Z,1.46
2018-01-03T21:12:09.404Z,1.15
2018-01-03T21:14:37.752Z,1.21
2018-01-03T21:17:04.411Z,1.39
2018-01-03T21:19:31.218Z,1.52
2018-01-03T21:21:58.617Z,1.59
2018-01-03T21:24:26.052Z,1.63
2018-01-03T21:26:52.831Z,1.52
2018-01-03T21:29:20.279Z,1.65
2018-01-03T21:31:46.950Z,1.38
2018-01-03T21:34:14.436Z,1.25
2018-01-03T21:36:41.165Z,1.32
2018-01-03T21:39:08.756Z,1.33
2018-01-03T21:41:35.449Z,1.26
2018-01-03T21:44:02.877Z,1.25
2018-01-03T21:46:29.638Z,1.37
2018-01-03T21:48:57.172Z,1.51
2018-01-03T21:51:23.927Z,1.36
2018-01-03T21:53:50.612Z,1.39
2018-01-03T21:56:18.057Z,1.08
2018-01-03T21:58:46.202Z,1.19
2018-01-03T22:01:12.870Z,1.30
2018-01-03T22:03:39.564Z,1.37
2018-01-03T22:06:06.232Z,1.23
2018-01-03T22:08:32.912Z,1.27
2018-01-03T22:11:00.349Z,1.11
2018-01-03T22:13:27.032Z,1.03
2018-01-03T22:15:53.675Z,1.20
2018-01-03T22:18:20.370Z,1.25
2018-01-03T22:20:47.022Z,1.16
2018-01-03T22:23:13.950Z,1.20
2018-01-03T22:25:40.624Z,0.82
2018-01-03T22:28:07.271Z,0.71
2018-01-03T22:30:34.666Z,0.77
2018-01-03T22:33:01.431Z,0.66
2018-01-03T22:35:28.168Z,0.61
2018-01-03T22:37:54.807Z,0.79
2018-01-03T22:40:21.570Z,0.88
2018-01-03T22:42:49.031Z,0.78
2018-01-03T22:45:15.701Z,0.71
2018-01-03T22:47:42.412Z,0.74
2018-01-03T22:50:09.028Z,0.52
2018-01-03T22:52:35.673Z,0.58
2018-01-03T22:55:02.346Z,0.33
2018-01-03T22:57:28.994Z,0.53
2018-01-03T22:59:55.681Z,0.31
2018-01-03T23:02:22.373Z,0.47
2018-01-03T23:04:49.073Z,0.59
2018-01-03T23:07:15.714Z,0.52
2018-01-03T23:09:42.418Z,0.57
2018-01-03T23:12:09.136Z,0.62
2018-01-03T23:14:35.780Z,0.66
2018-01-03T23:17:02.469Z,0.41
2018-01-03T23:19:29.905Z,0.38
2018-01-03T23:21:56.616Z,0.47
2018-01-03T23:24:23.323Z,0.57
2018-01-03T23:26:50.718Z,0.57
2018-01-03T23:29:17.382Z,0.42
2018-01-03T23:31:44.069Z,0.54
2018-01-03T23:34:11.470Z,0.63
2018-01-03T23:36:38.125Z,0.44
2018-01-03T23:39:04.804Z,0.47
2018-01-03T23:41:32.191Z,0.54
2018-01-03T23:43:58.833Z,0.64
2018-01-03T23:46:25.498Z,0.70
2018-01-03T23:48:52.155Z,0.67
2018-01-03T23:51:18.823Z,0.46
2018-01-03T23:53:45.497Z,0.54
2018-01-03T23:56:12.145Z,0.68
2018-01-03T23:58:38.822Z,0.70
